Flight Track Log - Related Links

Times and Time Zones

All times are in EDT time to prevent confusion due to time zone crossing. See the AFL150 flight status page for this flight to view local times or setup timezone preferences in your user account.

Time Position Orientation Groundspeed Altitude Reporting Facility
EDT Latitude Longitude Course Direction KTS MPH feet Rate Location/Type
Tue 06:47:00 PM 23.5280 -82.0815 223° Southwest  Level Estimated
Tue 06:48:00 PM 23.4266 -82.1434 223° Southwest  Level Estimated
Tue 06:48:10 PM 26.4010 -82.3710 223° Southwest 457 526 35,000  Level FlightAware ADS-B
Tue 06:48:46 PM 26.3320 -82.3370 156° South 458 527 35,000  Level FlightAware ADS-B
Tue 06:49:25 PM 26.2520 -82.2980 156° South 456 525 35,000  Level FlightAware ADS-B
Tue 06:49:55 PM 26.1940 -82.2690 156° South 440 506 35,000  Level FlightAware ADS-B
Tue 06:50:31 PM 26.1290 -82.2370 156° South 442 509 35,000  Level FlightAware ADS-B
Tue 06:51:10 PM 26.0600 -82.2040 157° South 442 509 35,000  Level FlightAware ADS-B
Tue 06:51:40 PM 26.0050 -82.1770 156° South 434 499 35,000  Level FlightAware ADS-B
Tue 06:51:50 PM 25.9780 -82.1680 163° South 426 490 35,000  Level FlightAware ADS-B
Tue 06:52:06 PM 25.9470 -82.1650 175° South 419 482 35,000  Level FlightAware ADS-B
Tue 06:52:26 PM 25.9100 -82.1700 187° South 422 486 35,000  Level FlightAware ADS-B
Tue 06:52:56 PM 25.8540 -82.1810 190° South 424 488 35,000  Level FlightAware ADS-B
Tue 06:53:35 PM 25.7730 -82.1950 189° South 427 491 35,000  Level FlightAware ADS-B
Tue 06:54:06 PM 25.7200 -82.2050 190° South 420 483 35,000  Level FlightAware ADS-B
Tue 06:54:40 PM 25.6500 -82.2180 190° South 422 486 35,000  Level FlightAware ADS-B
Tue 06:55:22 PM 25.5650 -82.2340 190° South 424 488 35,000  Level FlightAware ADS-B
Tue 06:55:56 PM 25.5010 -82.2460 190° South 425 489 35,000  Level FlightAware ADS-B
Tue 06:56:51 PM 25.3950 -82.2650 189° South 426 490 35,000  Level FlightAware ADS-B
Tue 06:57:26 PM 25.3260 -82.2780 190° South 425 489 35,000  Level FlightAware ADS-B
Tue 06:58:06 PM 25.2600 -82.2890 189° South 425 489 35,000  Level FlightAware ADS-B
Tue 06:58:46 PM 25.1610 -82.3080 190° South 425 489 35,000  Level FlightAware ADS-B
Tue 06:59:38 PM 25.0650 -82.3250 189° South 426 490 35,000  Level FlightAware ADS-B
Tue 07:00:21 PM 24.9770 -82.3420 190° South 440 506 35,000  Level FlightAware ADS-B
Tue 07:01:18 PM 24.8680 -82.3620 189° South 427 491 35,000 -316 Level FlightAware ADS-B
Tue 07:01:56 PM 24.7830 -82.3770 189° South 438 504 34,500 -635 Descending FlightAware ADS-B
Tue 07:02:43 PM 24.6960 -82.3930 189° South 440 506 34,100 -289 Descending FlightAware ADS-B
Tue 07:03:19 PM 24.6340 -82.4030 188° South 440 506 34,100  Level FlightAware ADS-B
Tue 07:03:55 PM 24.5730 -82.4140 189° South 440 506 34,100  Level FlightAware ADS-B
Tue 07:04:31 PM 24.5110 -82.4250 189° South 440 506 34,100 -4,184 Level FlightAware ADS-B
Tue 07:05:11 PM 24.4040 -82.4460 190° South 406 467 28,800 -4,077 Descending FlightAware ADS-B
Tue 07:05:49 PM 24.3440 -82.4560 189° South 406 467 28,800  Level FlightAware ADS-B
Tue 07:06:25 PM 24.2870 -82.4660 189° South 406 467 28,800  Level FlightAware ADS-B
Tue 07:07:01 PM 24.2310 -82.4760 189° South 406 467 28,800  Level FlightAware ADS-B
Tue 07:07:37 PM 24.1740 -82.4860 189° South 406 467 28,800  Level FlightAware ADS-B
Tue 07:08:14 PM 24.1160 -82.4960 189° South 406 467 28,800  Level FlightAware ADS-B
Tue 07:08:51 PM 24.0570 -82.5060 189° South 406 467 28,800 -6,320 Level FlightAware ADS-B
Tue 07:09:29 PM 23.9414 -82.5294 189° South 407 468 20,900 -12,474 Descending Miami Center
Tue 07:11:00 PM 23.7748 -82.4658 161° South  Level FlightAware Approximate
Tue 07:18:00 PM 22.9891 -82.4091 180° South  Level Estimated
Tue 07:19:00 PM 22.9891 -82.4091 180° South  Level Estimated
Tue 07:20:00 PM 22.9891 -82.4091 180° South  Level Estimated
Tue 07:21:00 PM 22.9891 -82.4091 180° South  Level Estimated
Tue 07:22:00 PM 22.9891 -82.4091 180° South  Level Estimated
Tue 07:23:00 PM 22.9891 -82.4091 180° South  Level Estimated
Tue 07:24:00 PM 22.9891 -82.4091 180° South  Level Estimated
Tue 07:25:00 PM 22.9891 -82.4091 180° South  Level Estimated
Tue 07:26:00 PM 22.9891 -82.4091 180° South  Level Estimated
Tue 07:27:00 PM 22.9891 -82.4091 180° South  Level Estimated
Tue 07:28:00 PM 22.9891 -82.4091 180° South  Level Estimated
Tue 07:29:00 PM 22.9891 -82.4091 180° South  Level Estimated
Tue 07:30:00 PM 22.9891 -82.4091 180° South  Level Estimated
Tue 07:31:00 PM 22.9891 -82.4091 180° South  Level Estimated
Tue 07:32:00 PM 22.9891 -82.4091 180° South  Level Estimated
Tue 07:33:00 PM 22.9891 -82.4091 180° South  Level Estimated
Tue 07:34:00 PM 22.9891 -82.4091 180° South  Level Estimated
Tue 07:35:00 PM 22.9891 -82.4091 180° South  Level Estimated
Tue 07:36:00 PM 22.9891 -82.4091 180° South  Level Estimated
Tue 07:37:00 PM 22.9891 -82.4091 180° South  Level Estimated

Login

Don't have an account? Register now (free) for customized features, flight alerts, and more!